createdAt,value
2019-01-31T00:01:44.797Z,198.33
2019-01-31T00:04:31.304Z,187.10
2019-01-31T00:07:05.711Z,189.80
2019-01-31T00:09:43.380Z,211.50
2019-01-31T00:12:15.222Z,213.43
2019-01-31T00:14:52.482Z,217.33
2019-01-31T00:17:27.275Z,235.73
2019-01-31T00:20:14.187Z,229.43
2019-01-31T00:22:48.471Z,238.23
2019-01-31T00:25:23.132Z,239.87
2019-01-31T00:28:04.559Z,245.90
2019-01-31T00:30:47.640Z,250.10
2019-01-31T00:33:40.811Z,246.27
2019-01-31T00:36:33.558Z,242.30
2019-01-31T00:39:11.005Z,240.00
2019-01-31T00:41:59.145Z,242.57
2019-01-31T00:44:48.945Z,245.77
2019-01-31T00:47:35.457Z,238.20
2019-01-31T00:50:41.957Z,238.43
2019-01-31T00:53:22.892Z,237.57
2019-01-31T00:56:26.363Z,228.73
2019-01-31T00:59:16.072Z,215.47
2019-01-31T01:02:05.935Z,230.57
2019-01-31T01:04:46.475Z,216.37
2019-01-31T01:07:20.988Z,198.27
2019-01-31T01:10:04.570Z,203.43
2019-01-31T01:12:48.331Z,222.60
2019-01-31T01:15:34.956Z,210.67
2019-01-31T01:18:24.237Z,206.00
2019-01-31T01:20:58.817Z,192.80
2019-01-31T01:23:33.208Z,197.97
2019-01-31T01:26:20.032Z,190.00
2019-01-31T01:29:26.060Z,192.20
2019-01-31T01:32:24.495Z,191.87
2019-01-31T01:35:01.323Z,196.17
2019-01-31T01:37:32.372Z,199.53
2019-01-31T01:40:04.101Z,194.77
2019-01-31T01:42:47.859Z,189.17
2019-01-31T01:45:34.325Z,199.37
2019-01-31T01:48:11.603Z,197.67
2019-01-31T01:50:46.132Z,200.87
2019-01-31T01:53:30.193Z,194.80
2019-01-31T01:56:07.764Z,201.30
2019-01-31T01:58:48.242Z,192.57
2019-01-31T02:01:22.540Z,197.57
2019-01-31T02:03:57.162Z,198.73
2019-01-31T02:06:35.136Z,200.27
2019-01-31T02:09:30.058Z,206.00
2019-01-31T02:12:04.331Z,200.63
2019-01-31T02:14:52.526Z,204.07
2019-01-31T02:17:24.442Z,206.87
2019-01-31T02:20:22.025Z,202.97
2019-01-31T02:22:59.575Z,206.03
2019-01-31T02:25:31.330Z,205.93
2019-01-31T02:28:03.084Z,215.03
2019-01-31T02:31:07.818Z,215.47
2019-01-31T02:34:12.646Z,211.97
2019-01-31T02:36:50.647Z,207.67
2019-01-31T02:39:43.133Z,225.90
2019-01-31T02:42:16.236Z,220.47
2019-01-31T02:45:08.467Z,221.53
2019-01-31T02:47:45.222Z,211.47
2019-01-31T02:50:22.967Z,216.43
2019-01-31T02:53:14.408Z,205.73
2019-01-31T02:55:48.895Z,189.27
2019-01-31T02:58:29.358Z,208.37
2019-01-31T03:01:03.684Z,215.23
2019-01-31T03:03:47.375Z,220.67
2019-01-31T03:06:30.411Z,193.03
2019-01-31T03:09:18.746Z,214.83
2019-01-31T03:11:50.462Z,209.23
2019-01-31T03:14:22.248Z,208.10
2019-01-31T03:17:13.376Z,180.20
2019-01-31T03:19:50.633Z,197.67
2019-01-31T03:22:22.475Z,199.93
2019-01-31T03:25:15.312Z,171.80
2019-01-31T03:28:20.591Z,155.83
2019-01-31T03:31:14.812Z,142.60
2019-01-31T03:33:56.232Z,152.33
2019-01-31T03:36:30.834Z,156.23
2019-01-31T03:39:18.937Z,172.73
2019-01-31T03:41:55.934Z,142.33
2019-01-31T03:44:36.300Z,150.07
2019-01-31T03:47:10.842Z,146.50
2019-01-31T03:49:51.482Z,160.10
2019-01-31T03:52:38.045Z,184.47
2019-01-31T03:55:27.857Z,184.30
2019-01-31T03:58:16.039Z,180.83
2019-01-31T04:01:10.388Z,190.60
2019-01-31T04:03:57.234Z,182.23
2019-01-31T04:06:25.701Z,181.20
2019-01-31T04:08:54.178Z,188.97
2019-01-31T04:11:22.660Z,189.37
2019-01-31T04:13:51.122Z,187.77
2019-01-31T04:16:19.812Z,195.43
2019-01-31T04:18:48.495Z,194.53
2019-01-31T04:21:16.979Z,196.13
2019-01-31T04:23:45.383Z,193.87
2019-01-31T04:26:14.019Z,195.13
2019-01-31T04:28:42.437Z,197.37
2019-01-31T04:31:10.837Z,196.70
2019-01-31T04:33:39.270Z,197.63
2019-01-31T04:36:08.967Z,199.53
2019-01-31T04:38:37.373Z,197.43
2019-01-31T04:41:05.800Z,195.30
2019-01-31T04:43:34.277Z,194.73
2019-01-31T04:46:02.680Z,196.60
2019-01-31T04:48:31.257Z,198.07
2019-01-31T04:50:59.657Z,198.37
2019-01-31T04:53:28.342Z,187.57
2019-01-31T04:55:56.982Z,180.67
2019-01-31T04:58:25.575Z,178.47
2019-01-31T05:00:54.148Z,181.73
2019-01-31T05:03:22.871Z,178.40
2019-01-31T05:05:51.284Z,181.60
2019-01-31T05:08:19.691Z,169.57
2019-01-31T05:10:48.146Z,168.83
2019-01-31T05:13:16.702Z,173.73
2019-01-31T05:15:45.267Z,158.60
2019-01-31T05:18:13.715Z,166.93
2019-01-31T05:20:42.243Z,179.80
2019-01-31T05:23:10.667Z,170.97
2019-01-31T05:25:39.151Z,169.03
2019-01-31T05:28:07.857Z,169.20
2019-01-31T05:30:36.336Z,172.70
2019-01-31T05:33:05.036Z,172.73
2019-01-31T05:35:33.798Z,173.47
2019-01-31T05:38:03.210Z,163.60
2019-01-31T05:40:31.679Z,166.67
2019-01-31T05:43:00.247Z,145.90
2019-01-31T05:45:28.664Z,131.40
2019-01-31T05:47:57.306Z,152.70
2019-01-31T05:50:25.877Z,156.10
2019-01-31T05:52:54.283Z,163.43
2019-01-31T05:55:22.770Z,171.63
2019-01-31T05:57:51.243Z,173.07
2019-01-31T06:00:23.421Z,145.23
2019-01-31T06:02:51.865Z,134.17
2019-01-31T06:05:20.539Z,152.90
2019-01-31T06:07:49.279Z,162.80
2019-01-31T06:10:17.798Z,144.27
2019-01-31T06:12:46.197Z,142.03
2019-01-31T06:15:18.980Z,117.83
2019-01-31T06:17:47.685Z,116.80
2019-01-31T06:20:19.586Z,119.20
2019-01-31T06:22:48.189Z,115.20
2019-01-31T06:25:17.003Z,116.17
2019-01-31T06:27:45.619Z,124.20
2019-01-31T06:30:16.504Z,144.63
2019-01-31T06:32:45.082Z,125.20
2019-01-31T06:35:13.832Z,91.23
2019-01-31T06:37:42.250Z,87.67
2019-01-31T06:40:14.319Z,90.83
2019-01-31T06:42:42.948Z,89.17
2019-01-31T06:45:14.764Z,92.53
2019-01-31T06:47:43.200Z,102.70
2019-01-31T06:50:11.614Z,112.67
2019-01-31T06:52:40.011Z,120.27
2019-01-31T06:55:10.427Z,111.67
2019-01-31T06:57:38.833Z,105.03
2019-01-31T07:00:16.118Z,114.00
2019-01-31T07:02:44.611Z,126.53
2019-01-31T07:05:13.160Z,120.37
2019-01-31T07:07:41.773Z,120.17
2019-01-31T07:10:24.695Z,115.60
2019-01-31T07:12:53.285Z,131.03
2019-01-31T07:15:21.939Z,120.03
2019-01-31T07:17:50.707Z,115.53
2019-01-31T07:20:19.194Z,113.57
2019-01-31T07:22:47.597Z,132.07
2019-01-31T07:25:18.895Z,123.13
2019-01-31T07:27:47.661Z,125.63
2019-01-31T07:30:18.244Z,118.00
2019-01-31T07:32:46.927Z,119.13
2019-01-31T07:35:15.948Z,129.20
2019-01-31T07:37:44.527Z,131.67
2019-01-31T07:40:16.144Z,126.20
2019-01-31T07:42:45.942Z,114.53
2019-01-31T07:45:17.859Z,114.23
2019-01-31T07:47:46.542Z,120.57
2019-01-31T07:50:17.222Z,114.67
2019-01-31T07:52:47.139Z,108.93
2019-01-31T07:55:15.544Z,93.93
2019-01-31T07:57:43.993Z,60.30
2019-01-31T08:00:20.754Z,62.13
2019-01-31T08:02:49.184Z,67.70
2019-01-31T08:05:22.801Z,78.10
2019-01-31T08:07:53.044Z,70.03
2019-01-31T08:10:27.319Z,81.27
2019-01-31T08:12:55.716Z,91.70
2019-01-31T08:15:24.126Z,84.03
2019-01-31T08:17:52.813Z,82.83
2019-01-31T08:20:21.207Z,86.10
2019-01-31T08:22:49.790Z,93.27
2019-01-31T08:25:25.561Z,108.83
2019-01-31T08:27:55.084Z,109.03
2019-01-31T08:30:26.263Z,118.13
2019-01-31T08:32:54.866Z,116.27
2019-01-31T08:35:23.274Z,116.40
2019-01-31T08:37:51.872Z,115.43
2019-01-31T08:40:20.392Z,110.43
2019-01-31T08:42:49.771Z,110.47
2019-01-31T08:45:18.442Z,112.03
2019-01-31T08:47:47.093Z,111.50
2019-01-31T08:50:18.187Z,108.00
2019-01-31T08:52:46.804Z,106.60
2019-01-31T08:55:15.519Z,107.67
2019-01-31T08:57:44.058Z,100.43
2019-01-31T09:00:24.214Z,94.33
2019-01-31T09:02:52.778Z,96.23
2019-01-31T09:05:21.511Z,95.97
2019-01-31T09:07:50.181Z,98.53
2019-01-31T09:10:28.406Z,84.20
2019-01-31T09:12:57.996Z,84.47
2019-01-31T09:15:26.665Z,77.27
2019-01-31T09:17:55.122Z,87.70
2019-01-31T09:20:38.925Z,82.37
2019-01-31T09:23:19.643Z,85.23
2019-01-31T09:26:13.984Z,88.77
2019-01-31T09:29:06.279Z,81.53
2019-01-31T09:32:02.232Z,79.93
2019-01-31T09:34:34.096Z,72.83
2019-01-31T09:37:06.228Z,65.43
2019-01-31T09:39:46.982Z,57.40
2019-01-31T09:42:33.695Z,56.57
2019-01-31T09:45:18.209Z,63.57
2019-01-31T09:47:52.856Z,59.43
2019-01-31T09:50:39.911Z,58.60
2019-01-31T09:53:20.147Z,64.00
2019-01-31T09:56:12.839Z,75.43
2019-01-31T09:59:04.220Z,53.47
2019-01-31T10:01:36.220Z,52.60
2019-01-31T10:04:17.260Z,53.20
2019-01-31T10:07:05.274Z,52.30
2019-01-31T10:09:37.021Z,48.33
2019-01-31T10:12:08.846Z,44.20
2019-01-31T10:15:00.946Z,35.83
2019-01-31T10:17:50.365Z,36.10
2019-01-31T10:20:24.678Z,36.03
2019-01-31T10:23:02.388Z,29.10
2019-01-31T10:25:56.925Z,29.63
2019-01-31T10:28:53.662Z,44.37
2019-01-31T10:31:28.185Z,27.07
2019-01-31T10:34:06.126Z,20.33
2019-01-31T10:36:43.400Z,23.00
2019-01-31T10:39:35.581Z,20.10
2019-01-31T10:42:24.118Z,21.53
2019-01-31T10:45:13.747Z,20.17
2019-01-31T10:47:55.567Z,14.30
2019-01-31T10:50:30.058Z,25.90
2019-01-31T10:53:35.362Z,16.13
2019-01-31T10:56:09.931Z,9.73
2019-01-31T10:58:56.411Z,8.13
2019-01-31T11:01:55.203Z,8.40
2019-01-31T11:04:43.649Z,11.30
2019-01-31T11:07:24.476Z,8.80
2019-01-31T11:10:02.002Z,8.00
2019-01-31T11:12:39.734Z,7.10
2019-01-31T11:15:41.954Z,5.67
2019-01-31T11:18:22.739Z,4.70
2019-01-31T11:21:21.856Z,5.03
2019-01-31T11:23:56.254Z,4.60
2019-01-31T11:26:53.138Z,6.83
2019-01-31T11:29:41.544Z,5.43
2019-01-31T11:32:30.549Z,5.07
2019-01-31T11:35:11.148Z,6.90
2019-01-31T11:37:57.648Z,5.63
2019-01-31T11:40:35.537Z,5.60
2019-01-31T11:43:31.450Z,6.30
2019-01-31T11:46:25.665Z,5.00
2019-01-31T11:49:07.455Z,5.57
2019-01-31T11:51:51.235Z,7.43
2019-01-31T11:54:22.908Z,7.10
2019-01-31T11:57:06.811Z,7.90
2019-01-31T11:59:39.459Z,7.03
2019-01-31T12:02:06.204Z,5.80
2019-01-31T12:04:34.845Z,8.03
2019-01-31T12:07:03.311Z,7.47
2019-01-31T12:09:31.895Z,7.80
2019-01-31T12:12:00.568Z,6.57
2019-01-31T12:14:29.226Z,7.47
2019-01-31T12:16:57.996Z,8.53
2019-01-31T12:19:26.637Z,7.90
2019-01-31T12:21:55.541Z,8.17
2019-01-31T12:24:24.313Z,8.47
2019-01-31T12:26:52.711Z,8.77
2019-01-31T12:29:21.485Z,8.30
2019-01-31T12:31:49.972Z,8.80
2019-01-31T12:34:18.688Z,9.40
2019-01-31T12:36:47.288Z,9.50
2019-01-31T12:39:16.040Z,12.43
2019-01-31T12:41:46.203Z,10.70
2019-01-31T12:44:14.643Z,11.00
2019-01-31T12:46:43.123Z,10.90
2019-01-31T12:49:11.592Z,9.60
2019-01-31T12:51:40.542Z,9.20
2019-01-31T12:54:09.242Z,8.80
2019-01-31T12:56:37.618Z,9.47
2019-01-31T12:59:06.620Z,10.00
2019-01-31T13:01:35.172Z,9.50
2019-01-31T13:04:03.729Z,8.33
2019-01-31T13:06:32.660Z,8.43
2019-01-31T13:09:01.463Z,25.20
2019-01-31T13:11:29.923Z,12.63
2019-01-31T13:13:58.463Z,14.87
2019-01-31T13:16:27.023Z,11.83
2019-01-31T13:18:55.416Z,10.20
2019-01-31T13:21:24.137Z,12.20
2019-01-31T13:23:52.597Z,14.67
2019-01-31T13:26:21.295Z,10.97
2019-01-31T13:28:50.378Z,11.93
2019-01-31T13:31:19.025Z,10.00
2019-01-31T13:33:47.909Z,10.93
2019-01-31T13:36:16.515Z,10.53
2019-01-31T13:38:45.286Z,9.93
2019-01-31T13:41:14.177Z,9.97
2019-01-31T13:43:43.604Z,9.73
2019-01-31T13:46:12.532Z,10.33
2019-01-31T13:48:41.183Z,10.40
2019-01-31T13:51:11.816Z,11.20
2019-01-31T13:53:41.308Z,10.83
2019-01-31T13:56:10.016Z,10.30
2019-01-31T13:58:38.635Z,9.63
2019-01-31T14:01:07.431Z,8.60
2019-01-31T14:03:36.262Z,9.60
2019-01-31T14:06:07.912Z,8.23
2019-01-31T14:08:36.785Z,7.93
2019-01-31T14:11:05.757Z,8.63
2019-01-31T14:13:35.037Z,8.30
2019-01-31T14:16:04.098Z,9.63
2019-01-31T14:18:32.761Z,11.67
2019-01-31T14:21:01.591Z,13.63
2019-01-31T14:23:30.376Z,17.27
2019-01-31T14:25:59.554Z,18.57
2019-01-31T14:28:31.601Z,13.77
2019-01-31T14:31:01.594Z,17.37
2019-01-31T14:33:30.099Z,13.07
2019-01-31T14:35:59.583Z,15.47
2019-01-31T14:38:28.684Z,14.67
2019-01-31T14:40:57.460Z,14.83
2019-01-31T14:43:25.889Z,11.27
2019-01-31T14:45:55.433Z,34.97
2019-01-31T14:48:23.883Z,33.13
2019-01-31T14:50:52.351Z,17.47
2019-01-31T14:53:20.989Z,30.90
2019-01-31T14:55:50.295Z,50.03
2019-01-31T14:58:20.066Z,54.40
2019-01-31T15:00:49.511Z,45.87
2019-01-31T15:03:19.815Z,46.37
2019-01-31T15:05:48.256Z,33.07
2019-01-31T15:08:16.863Z,33.10
2019-01-31T15:10:46.046Z,39.07
2019-01-31T15:13:15.661Z,22.87
2019-01-31T15:15:44.139Z,26.23
2019-01-31T15:18:12.679Z,25.73
2019-01-31T15:20:42.908Z,38.37
2019-01-31T15:23:11.999Z,38.57
2019-01-31T15:25:40.802Z,33.43
2019-01-31T15:28:09.588Z,33.30
2019-01-31T15:30:40.203Z,32.33
2019-01-31T15:33:12.849Z,37.83
2019-01-31T15:35:41.801Z,46.37
2019-01-31T15:38:10.206Z,39.43
2019-01-31T15:40:41.604Z,41.37
2019-01-31T15:43:10.113Z,41.10
2019-01-31T15:45:38.777Z,40.87
2019-01-31T15:48:10.560Z,40.47
2019-01-31T15:50:39.307Z,37.37
2019-01-31T15:53:07.714Z,33.00
2019-01-31T15:55:36.550Z,27.60
2019-01-31T15:58:06.964Z,21.83
2019-01-31T16:00:44.937Z,19.50
2019-01-31T16:03:15.733Z,20.37
2019-01-31T16:05:44.323Z,19.47
2019-01-31T16:08:13.152Z,19.33
2019-01-31T16:10:44.951Z,21.60
2019-01-31T16:13:13.829Z,26.40
2019-01-31T16:15:42.785Z,25.80
2019-01-31T16:18:12.095Z,19.40
2019-01-31T16:20:40.564Z,19.67
2019-01-31T16:23:09.509Z,22.13
2019-01-31T16:25:38.535Z,62.87
2019-01-31T16:28:07.098Z,40.60
2019-01-31T16:30:35.954Z,42.63
2019-01-31T16:33:05.011Z,64.63
2019-01-31T16:35:34.881Z,91.30
2019-01-31T16:38:03.435Z,87.40
2019-01-31T16:40:31.903Z,67.63
2019-01-31T16:43:01.174Z,80.13
2019-01-31T16:45:29.664Z,103.23
2019-01-31T16:47:58.504Z,125.97
2019-01-31T16:50:27.263Z,120.37
2019-01-31T16:52:56.026Z,121.70
2019-01-31T16:55:29.043Z,124.43
2019-01-31T16:57:57.882Z,147.30
2019-01-31T17:00:32.558Z,129.37
2019-01-31T17:03:01.343Z,179.40
2019-01-31T17:05:31.681Z,136.47
2019-01-31T17:08:00.336Z,104.97
2019-01-31T17:10:28.753Z,76.53
2019-01-31T17:12:57.293Z,101.10
2019-01-31T17:15:25.892Z,98.10
2019-01-31T17:17:55.003Z,130.07
2019-01-31T17:20:29.388Z,177.97
2019-01-31T17:22:58.127Z,122.57
2019-01-31T17:25:26.740Z,117.70
2019-01-31T17:27:55.363Z,100.83
2019-01-31T17:30:26.418Z,95.10
2019-01-31T17:32:56.149Z,113.53
2019-01-31T17:35:24.852Z,110.23
2019-01-31T17:37:53.432Z,129.87
2019-01-31T17:40:27.618Z,108.57
2019-01-31T17:42:56.562Z,130.23
2019-01-31T17:45:30.357Z,135.20
2019-01-31T17:47:55.740Z,123.87
2019-01-31T17:50:24.987Z,243.23
2019-01-31T17:52:54.487Z,185.30
2019-01-31T17:55:25.050Z,156.63
2019-01-31T17:57:53.668Z,132.67
2019-01-31T18:00:26.359Z,115.23
2019-01-31T18:02:55.792Z,85.63
2019-01-31T18:05:24.762Z,91.23
2019-01-31T18:07:53.350Z,97.33
2019-01-31T18:10:23.460Z,137.57
2019-01-31T18:12:51.958Z,144.40
2019-01-31T18:15:21.104Z,124.00
2019-01-31T18:17:50.540Z,156.67
2019-01-31T18:20:23.605Z,161.13
2019-01-31T18:22:53.403Z,144.73
2019-01-31T18:25:22.490Z,151.60
2019-01-31T18:27:53.047Z,147.03
2019-01-31T18:30:23.859Z,109.27
2019-01-31T18:32:53.012Z,116.87
2019-01-31T18:35:21.743Z,112.23
2019-01-31T18:37:51.016Z,116.23
2019-01-31T18:40:22.060Z,111.87
2019-01-31T18:42:50.713Z,117.97
2019-01-31T18:45:24.374Z,139.00
2019-01-31T18:47:53.078Z,149.87
2019-01-31T18:50:27.749Z,167.53
2019-01-31T18:52:56.504Z,147.30
2019-01-31T18:55:25.504Z,133.47
2019-01-31T18:57:54.697Z,141.90
2019-01-31T19:00:31.461Z,145.37
2019-01-31T19:02:59.922Z,134.23
2019-01-31T19:05:29.607Z,123.23
2019-01-31T19:07:58.140Z,127.27
2019-01-31T19:10:26.827Z,130.30
2019-01-31T19:12:55.393Z,126.90
2019-01-31T19:15:25.783Z,129.07
2019-01-31T19:18:04.511Z,126.87
2019-01-31T19:20:30.472Z,121.23
2019-01-31T19:23:00.991Z,115.33
2019-01-31T19:25:32.141Z,105.80
2019-01-31T19:27:59.979Z,101.77
2019-01-31T19:30:30.999Z,86.83
2019-01-31T19:33:00.029Z,93.20
2019-01-31T19:35:28.577Z,92.37
2019-01-31T19:38:02.005Z,82.93
2019-01-31T19:40:32.861Z,73.30
2019-01-31T19:43:01.320Z,70.77
2019-01-31T19:45:32.925Z,73.60
2019-01-31T19:48:01.482Z,73.23
2019-01-31T19:50:30.132Z,72.20
2019-01-31T19:52:58.929Z,69.10
2019-01-31T19:55:27.382Z,72.43
2019-01-31T19:57:55.899Z,65.00
2019-01-31T20:00:26.580Z,78.23
2019-01-31T20:02:55.733Z,68.90
2019-01-31T20:05:24.836Z,75.37
2019-01-31T20:07:54.517Z,73.90
2019-01-31T20:10:29.018Z,64.73
2019-01-31T20:12:57.631Z,57.13
2019-01-31T20:15:26.083Z,49.43
2019-01-31T20:17:54.779Z,47.57
2019-01-31T20:20:26.011Z,45.53
2019-01-31T20:22:55.502Z,119.33
2019-01-31T20:25:25.821Z,104.70
2019-01-31T20:27:54.549Z,107.63
2019-01-31T20:30:25.584Z,109.03
2019-01-31T20:32:54.574Z,104.97
2019-01-31T20:35:23.820Z,123.80
2019-01-31T20:37:52.568Z,124.87
2019-01-31T20:40:32.765Z,120.73
2019-01-31T20:43:01.178Z,121.33
2019-01-31T20:45:30.153Z,112.77
2019-01-31T20:47:58.863Z,106.00
2019-01-31T20:50:36.056Z,105.03
2019-01-31T20:53:05.123Z,96.53
2019-01-31T20:55:33.709Z,92.10
2019-01-31T20:58:02.191Z,72.33
2019-01-31T21:00:34.102Z,83.83
2019-01-31T21:03:03.286Z,90.93
2019-01-31T21:05:31.688Z,93.80
2019-01-31T21:08:00.189Z,99.80
2019-01-31T21:10:29.633Z,104.33
2019-01-31T21:12:58.044Z,110.63
2019-01-31T21:15:26.571Z,113.17
2019-01-31T21:17:55.566Z,126.83
2019-01-31T21:20:26.505Z,124.97
2019-01-31T21:22:55.669Z,133.20
2019-01-31T21:25:24.239Z,152.73
2019-01-31T21:27:52.776Z,128.00
2019-01-31T21:30:36.668Z,120.57
2019-01-31T21:33:05.382Z,124.17
2019-01-31T21:35:33.921Z,131.00
2019-01-31T21:38:02.769Z,112.13
2019-01-31T21:40:33.292Z,101.43
2019-01-31T21:43:01.843Z,82.80
2019-01-31T21:45:30.562Z,97.47
2019-01-31T21:47:59.073Z,74.97
2019-01-31T21:50:29.788Z,78.30
2019-01-31T21:52:58.299Z,73.80
2019-01-31T21:55:26.699Z,66.77
2019-01-31T21:57:55.210Z,72.27
2019-01-31T22:00:26.219Z,77.03
2019-01-31T22:02:54.733Z,75.37
2019-01-31T22:05:23.127Z,74.17
2019-01-31T22:07:51.648Z,76.87
2019-01-31T22:10:20.990Z,74.60
2019-01-31T22:12:50.360Z,71.00
2019-01-31T22:15:27.478Z,74.97
2019-01-31T22:17:59.817Z,84.47
2019-01-31T22:20:25.972Z,90.03
2019-01-31T22:22:54.412Z,79.43
2019-01-31T22:25:23.656Z,93.87
2019-01-31T22:27:52.197Z,83.90
2019-01-31T22:30:26.554Z,108.30
2019-01-31T22:32:55.033Z,90.17
2019-01-31T22:35:23.419Z,109.10
2019-01-31T22:37:51.865Z,119.57
2019-01-31T22:40:20.272Z,110.37
2019-01-31T22:42:48.841Z,79.73
2019-01-31T22:45:22.894Z,78.47
2019-01-31T22:47:51.537Z,87.73
2019-01-31T22:50:21.879Z,79.33
2019-01-31T22:52:50.400Z,96.70
2019-01-31T22:55:21.028Z,61.20
2019-01-31T22:57:49.416Z,86.50
2019-01-31T23:00:28.451Z,80.33
2019-01-31T23:02:56.924Z,113.00
2019-01-31T23:05:25.359Z,90.57
2019-01-31T23:07:53.795Z,87.27
2019-01-31T23:10:22.354Z,79.03
2019-01-31T23:12:50.809Z,76.47
2019-01-31T23:15:20.326Z,80.63
2019-01-31T23:17:48.787Z,78.33
2019-01-31T23:20:17.291Z,73.93
2019-01-31T23:22:46.198Z,70.57
2019-01-31T23:25:14.774Z,64.20
2019-01-31T23:27:43.339Z,58.33
2019-01-31T23:30:14.565Z,64.60
2019-01-31T23:32:43.019Z,64.60
2019-01-31T23:35:11.503Z,95.10
2019-01-31T23:37:40.056Z,85.87
2019-01-31T23:40:10.890Z,95.47
2019-01-31T23:42:39.295Z,70.57
2019-01-31T23:45:15.904Z,62.77
2019-01-31T23:47:48.789Z,76.47
2019-01-31T23:50:14.455Z,87.47
2019-01-31T23:52:42.991Z,83.87
2019-01-31T23:55:13.587Z,83.33
2019-01-31T23:57:42.110Z,88.37
